Time;durP1;ratioP1;P1;durP2;ratioP2;P2;SDS_P1;SDS_P2;PMS_P1;PMS_P2;Temp;Humidity;BMP_temperature;BMP_pressure;BME280_temperature;BME280_humidity;BME280_pressure;Samples;Min_cycle;Max_cycle;Signal;HPM_P1;HPM_P2
2023/12/22 00:01:56;;;;;;;16.80;3.28;;;;;;;;;;4916358;29;20042;-79
2023/12/22 00:04:22;;;;;;;16.35;2.42;;;;;;;;;;4925910;29;20032;-81
2023/12/22 00:06:48;;;;;;;17.35;2.92;;;;;;;;;;4922139;29;20032;-80
2023/12/22 00:09:14;;;;;;;13.43;2.70;;;;;;;;;;4892716;29;20040;-80
2023/12/22 00:11:40;;;;;;;20.10;3.30;;;;;;;;;;4894802;29;20046;-79
2023/12/22 00:14:06;;;;;;;20.00;2.83;;;;;;;;;;4898418;29;20043;-79
2023/12/22 00:16:31;;;;;;;20.20;3.50;;;;;;;;;;4896855;29;20072;-81
2023/12/22 00:18:57;;;;;;;19.17;3.15;;;;;;;;;;4915518;29;20036;-81
2023/12/22 00:21:23;;;;;;;19.45;2.78;;;;;;;;;;4921488;29;20036;-81
2023/12/22 00:23:48;;;;;;;19.88;2.85;;;;;;;;;;4959306;29;20042;-80
2023/12/22 00:26:15;;;;;;;17.77;3.05;;;;;;;;;;4956114;29;20076;-79
2023/12/22 00:28:41;;;;;;;14.07;2.38;;;;;;;;;;4950286;29;20035;-80
2023/12/22 00:31:07;;;;;;;20.65;2.20;;;;;;;;;;4951183;29;20039;-81
2023/12/22 00:33:33;;;;;;;17.67;2.38;;;;;;;;;;4916416;29;20031;-81
2023/12/22 00:35:59;;;;;;;11.45;1.83;;;;;;;;;;4948414;29;20114;-80
2023/12/22 00:38:25;;;;;;;15.80;2.35;;;;;;;;;;4931273;29;20063;-79
2023/12/22 00:40:50;;;;;;;15.02;2.90;;;;;;;;;;4943412;29;20401;-80
2023/12/22 00:43:16;;;;;;;14.82;2.80;;;;;;;;;;4932940;29;20032;-80
2023/12/22 00:45:46;;;;;;;11.23;1.92;;;;;;;;;;4933793;29;20032;-81
2023/12/22 00:48:13;;;;;;;16.02;2.80;;;;;;;;;;4934117;29;20040;-80
2023/12/22 00:50:38;;;;;;;15.77;2.85;;;;;;;;;;4930281;29;20073;-82
2023/12/22 00:53:04;;;;;;;16.08;2.78;;;;;;;;;;4925650;29;20044;-82
2023/12/22 00:55:30;;;;;;;19.83;2.70;;;;;;;;;;4916515;29;20445;-81
2023/12/22 00:57:56;;;;;;;12.27;2.10;;;;;;;;;;4916245;29;20031;-80
2023/12/22 01:00:21;;;;;;;23.20;2.38;;;;;;;;;;4934036;29;20036;-81
2023/12/22 01:02:47;;;;;;;11.52;2.88;;;;;;;;;;4932549;29;20036;-80
2023/12/22 01:05:13;;;;;;;14.00;2.47;;;;;;;;;;4932486;29;20031;-81
2023/12/22 01:07:42;;;;;;;19.52;2.75;;;;;;;;;;4932693;29;20115;-80
2023/12/22 01:10:09;;;;;;;;;;;;;;;;;;4914822;29;20032;-81
2023/12/22 01:12:34;;;;;;;17.33;2.30;;;;;;;;;;4916154;29;19918;-80
2023/12/22 01:15:00;;;;;;;22.33;2.88;;;;;;;;;;4930894;29;20074;-80
2023/12/22 01:17:26;;;;;;;15.82;3.85;;;;;;;;;;4926896;29;20036;-81
2023/12/22 01:19:52;;;;;;;22.20;3.65;;;;;;;;;;4912830;29;20520;-81
2023/12/22 01:22:19;;;;;;;21.30;3.78;;;;;;;;;;4912199;29;20512;-81
2023/12/22 01:24:45;;;;;;;19.00;2.58;;;;;;;;;;4910568;29;20028;-81
2023/12/22 01:27:11;;;;;;;23.58;2.80;;;;;;;;;;4927268;29;20535;-81
2023/12/22 01:29:37;;;;;;;16.33;2.67;;;;;;;;;;4911793;29;20044;-81
2023/12/22 01:32:03;;;;;;;13.32;2.33;;;;;;;;;;4931651;29;20038;-79
2023/12/22 01:34:29;;;;;;;16.33;3.03;;;;;;;;;;4923571;29;20410;-79
2023/12/22 01:36:55;;;;;;;22.45;3.22;;;;;;;;;;4908704;29;20040;-79
2023/12/22 01:39:20;;;;;;;30.13;3.47;;;;;;;;;;4937924;29;20032;-79
2023/12/22 01:41:46;;;;;;;19.80;3.50;;;;;;;;;;4906524;29;20089;-80
2023/12/22 01:44:12;;;;;;;23.40;2.83;;;;;;;;;;4906293;29;20100;-80
2023/12/22 01:46:38;;;;;;;24.55;3.00;;;;;;;;;;4922066;29;20036;-81
2023/12/22 01:49:05;;;;;;;23.27;3.08;;;;;;;;;;4923469;29;20043;-81
2023/12/22 01:51:35;;;;;;;17.33;2.95;;;;;;;;;;4927331;29;20043;-80
2023/12/22 01:54:01;;;;;;;18.70;2.90;;;;;;;;;;4929598;29;20028;-80
2023/12/22 01:56:27;;;;;;;26.70;3.17;;;;;;;;;;4914291;29;20036;-81
2023/12/22 01:58:55;;;;;;;23.88;3.22;;;;;;;;;;4916092;29;20039;-79
2023/12/22 02:01:22;;;;;;;29.60;3.53;;;;;;;;;;4948114;29;20035;-80
2023/12/22 02:03:54;;;;;;;21.80;2.90;;;;;;;;;;4949232;29;20063;-81
2023/12/22 02:06:20;;;;;;;19.27;3.22;;;;;;;;;;4930613;29;20036;-80
2023/12/22 02:08:47;;;;;;;27.88;3.67;;;;;;;;;;4914715;29;20512;-81
2023/12/22 02:11:16;;;;;;;19.08;3.05;;;;;;;;;;4897398;29;20490;-81
2023/12/22 02:13:45;;;;;;;15.88;2.55;;;;;;;;;;4914676;29;20206;-81
2023/12/22 02:16:32;;;;;;;21.15;3.30;;;;;;;;;;4930214;29;20040;-81
2023/12/22 02:18:59;;;;;;;13.05;2.42;;;;;;;;;;4929072;29;20032;-81
2023/12/22 02:21:24;;;;;;;20.55;2.95;;;;;;;;;;4929285;29;20071;-81
2023/12/22 02:23:50;;;;;;;22.98;3.95;;;;;;;;;;4932661;29;20035;-82
2023/12/22 02:26:28;;;;;;;18.20;2.97;;;;;;;;;;4915758;29;20040;-82
2023/12/22 02:28:57;;;;;;;16.90;3.15;;;;;;;;;;4931999;29;20122;-82
2023/12/22 02:31:27;;;;;;;16.58;2.90;;;;;;;;;;4915828;29;20045;-81
2023/12/22 02:33:55;;;;;;;22.63;3.63;;;;;;;;;;4929493;29;20059;-81
2023/12/22 02:36:21;;;;;;;24.42;3.10;;;;;;;;;;4929883;29;20036;-81
2023/12/22 02:38:48;;;;;;;15.85;3.13;;;;;;;;;;4927268;29;20024;-81
2023/12/22 02:41:14;;;;;;;19.17;2.50;;;;;;;;;;4898635;29;20060;-81
2023/12/22 02:43:39;;;;;;;21.05;3.42;;;;;;;;;;4925103;29;20032;-79
2023/12/22 02:46:16;;;;;;;34.53;5.97;;;;;;;;;;4900857;29;20044;-82
2023/12/22 02:48:42;;;;;;;20.38;2.90;;;;;;;;;;4931143;29;20044;-80
2023/12/22 02:51:08;;;;;;;14.35;2.42;;;;;;;;;;4919848;29;20067;-80
2023/12/22 02:53:34;;;;;;;26.63;3.03;;;;;;;;;;4947955;29;20035;-80
2023/12/22 02:55:59;;;;;;;17.73;2.78;;;;;;;;;;4924214;29;20047;-80
2023/12/22 02:58:26;;;;;;;19.85;3.22;;;;;;;;;;4909979;29;20115;-79
2023/12/22 03:00:51;;;;;;;16.27;2.88;;;;;;;;;;4894442;29;20048;-79
2023/12/22 03:03:17;;;;;;;22.23;2.50;;;;;;;;;;4909308;29;20067;-79
2023/12/22 03:05:43;;;;;;;15.90;2.60;;;;;;;;;;4909905;29;20040;-80
2023/12/22 03:08:09;;;;;;;22.15;2.55;;;;;;;;;;4891938;29;20076;-81
2023/12/22 03:10:35;;;;;;;20.67;3.17;;;;;;;;;;4908585;29;20766;-80
2023/12/22 03:13:01;;;;;;;16.13;2.65;;;;;;;;;;4910450;29;20040;-79
2023/12/22 03:15:26;;;;;;;18.40;3.10;;;;;;;;;;4908317;29;20509;-80
2023/12/22 03:17:55;;;;;;;22.33;3.53;;;;;;;;;;4908004;29;20036;-80
2023/12/22 03:20:21;;;;;;;17.27;2.28;;;;;;;;;;4892142;29;20176;-80
2023/12/22 03:22:47;;;;;;;27.60;3.20;;;;;;;;;;4892092;29;20060;-80
2023/12/22 03:25:12;;;;;;;13.25;2.13;;;;;;;;;;4905828;29;20029;-81
2023/12/22 03:27:39;;;;;;;11.18;2.05;;;;;;;;;;4937271;29;20070;-81
2023/12/22 03:30:06;;;;;;;19.13;2.65;;;;;;;;;;4939547;29;20094;-81
2023/12/22 03:32:32;;;;;;;12.80;2.10;;;;;;;;;;4938753;29;20058;-81
2023/12/22 03:34:58;;;;;;;11.70;2.10;;;;;;;;;;4912936;29;20071;-80
2023/12/22 03:37:27;;;;;;;17.10;2.92;;;;;;;;;;4911056;29;20035;-79
2023/12/22 03:39:53;;;;;;;11.82;2.08;;;;;;;;;;4908762;29;20032;-80
2023/12/22 03:42:18;;;;;;;13.13;1.88;;;;;;;;;;4925932;29;20142;-81
2023/12/22 03:44:44;;;;;;;9.95;1.60;;;;;;;;;;4906819;29;20060;-80
2023/12/22 03:47:10;;;;;;;11.98;2.65;;;;;;;;;;4892559;29;20064;-81
2023/12/22 03:49:36;;;;;;;9.05;1.88;;;;;;;;;;4892478;29;20036;-79
2023/12/22 03:52:02;;;;;;;13.38;1.58;;;;;;;;;;4908983;29;20079;-81
2023/12/22 03:54:28;;;;;;;14.20;2.25;;;;;;;;;;4907372;29;20040;-79
2023/12/22 03:56:53;;;;;;;9.75;2.13;;;;;;;;;;4909756;29;20064;-79
2023/12/22 03:59:19;;;;;;;10.40;1.67;;;;;;;;;;4908561;29;20111;-79
2023/12/22 04:01:52;;;;;;;13.90;1.70;;;;;;;;;;4931361;29;20051;-80
2023/12/22 04:04:17;;;;;;;6.55;1.38;;;;;;;;;;4941000;29;20040;-79
2023/12/22 04:06:43;;;;;;;13.38;1.88;;;;;;;;;;4911792;29;20036;-80
2023/12/22 04:09:09;;;;;;;7.78;1.30;;;;;;;;;;4928378;29;20063;-80
2023/12/22 04:11:36;;;;;;;7.03;1.10;;;;;;;;;;4929619;29;20048;-81
2023/12/22 04:14:02;;;;;;;6.90;1.17;;;;;;;;;;4929135;29;20047;-82
2023/12/22 04:16:29;;;;;;;11.98;1.45;;;;;;;;;;4948205;29;20038;-80
2023/12/22 04:18:56;;;;;;;5.50;1.20;;;;;;;;;;4921458;29;20044;-80
2023/12/22 04:21:23;;;;;;;8.18;1.45;;;;;;;;;;4930050;29;20060;-80
2023/12/22 04:23:49;;;;;;;12.10;1.27;;;;;;;;;;4929913;29;20085;-81
2023/12/22 04:26:15;;;;;;;4.50;1.00;;;;;;;;;;4947720;29;20044;-82
2023/12/22 04:28:41;;;;;;;7.32;0.90;;;;;;;;;;4947877;29;20044;-81
2023/12/22 04:31:06;;;;;;;8.65;1.05;;;;;;;;;;4930030;29;20050;-79
2023/12/22 04:33:33;;;;;;;9.10;1.00;;;;;;;;;;4927996;29;20118;-81
2023/12/22 04:36:01;;;;;;;4.35;1.02;;;;;;;;;;4929609;29;20040;-80
2023/12/22 04:38:29;;;;;;;10.52;1.10;;;;;;;;;;4911040;29;20156;-81
2023/12/22 04:40:55;;;;;;;9.23;1.38;;;;;;;;;;4908109;29;20109;-80
2023/12/22 04:43:21;;;;;;;5.60;1.20;;;;;;;;;;4908750;29;20048;-80
2023/12/22 04:45:47;;;;;;;3.38;0.77;;;;;;;;;;4933160;29;20032;-80
2023/12/22 04:48:13;;;;;;;5.55;1.02;;;;;;;;;;4932984;29;20043;-81
2023/12/22 04:50:40;;;;;;;7.03;1.15;;;;;;;;;;4944056;29;20063;-80
2023/12/22 04:53:06;;;;;;;9.32;1.08;;;;;;;;;;4925836;29;20131;-79
2023/12/22 04:55:32;;;;;;;8.63;1.45;;;;;;;;;;4943118;29;20067;-79
2023/12/22 04:57:59;;;;;;;8.77;1.48;;;;;;;;;;4912015;29;20031;-80
2023/12/22 05:00:25;;;;;;;11.57;1.40;;;;;;;;;;4930681;29;20103;-79
2023/12/22 05:02:51;;;;;;;14.30;1.88;;;;;;;;;;4946979;29;20114;-80
2023/12/22 05:05:18;;;;;;;8.40;1.42;;;;;;;;;;4929193;29;20038;-81
2023/12/22 05:07:44;;;;;;;8.48;1.42;;;;;;;;;;4930227;29;20114;-80
2023/12/22 05:10:10;;;;;;;7.30;1.33;;;;;;;;;;4929210;29;20043;-80
2023/12/22 05:12:35;;;;;;;9.18;1.38;;;;;;;;;;4913410;29;20040;-81
2023/12/22 05:15:02;;;;;;;7.80;1.23;;;;;;;;;;4912739;29;20043;-80
2023/12/22 05:17:27;;;;;;;15.02;2.03;;;;;;;;;;4946160;29;20027;-79
2023/12/22 05:19:53;;;;;;;6.53;1.40;;;;;;;;;;4933595;29;20049;-80
2023/12/22 05:22:19;;;;;;;12.80;1.85;;;;;;;;;;4948707;29;20397;-79
2023/12/22 05:24:45;;;;;;;10.50;1.60;;;;;;;;;;4944096;29;20032;-81
2023/12/22 05:27:11;;;;;;;9.57;1.50;;;;;;;;;;4916519;29;20043;-81
2023/12/22 05:29:39;;;;;;;14.02;1.70;;;;;;;;;;4930952;29;20036;-80
2023/12/22 05:32:06;;;;;;;7.00;1.50;;;;;;;;;;4934125;29;20036;-80
2023/12/22 05:34:32;;;;;;;7.20;1.63;;;;;;;;;;4913155;29;20067;-82
2023/12/22 05:36:58;;;;;;;13.77;1.45;;;;;;;;;;4914757;29;20036;-81
2023/12/22 05:39:24;;;;;;;8.07;1.88;;;;;;;;;;4912040;29;20036;-79
2023/12/22 05:41:50;;;;;;;14.80;1.83;;;;;;;;;;4896384;29;20454;-82
2023/12/22 05:44:16;;;;;;;10.98;1.70;;;;;;;;;;4913047;29;20033;-81
2023/12/22 05:46:42;;;;;;;10.82;1.60;;;;;;;;;;4914588;29;20062;-82
2023/12/22 05:49:08;;;;;;;7.65;1.30;;;;;;;;;;4930223;29;20040;-81
2023/12/22 05:51:40;;;;;;;9.50;1.30;;;;;;;;;;4915832;29;20072;-81
2023/12/22 05:54:12;;;;;;;10.85;2.40;;;;;;;;;;4916761;29;20039;-82
2023/12/22 05:56:38;;;;;;;8.93;1.90;;;;;;;;;;4929256;29;20048;-80
2023/12/22 05:59:05;;;;;;;14.65;1.80;;;;;;;;;;4926539;29;20039;-81
2023/12/22 06:01:31;;;;;;;14.23;1.85;;;;;;;;;;4910263;29;20051;-80
2023/12/22 06:03:57;;;;;;;9.10;1.27;;;;;;;;;;4909475;29;20032;-81
2023/12/22 06:06:23;;;;;;;6.18;0.88;;;;;;;;;;4910060;29;20047;-80
2023/12/22 06:08:49;;;;;;;8.13;1.40;;;;;;;;;;4909380;29;20515;-81
2023/12/22 06:11:15;;;;;;;8.57;1.20;;;;;;;;;;4910292;29;20048;-80
2023/12/22 06:13:41;;;;;;;15.65;1.48;;;;;;;;;;4894913;29;20046;-81
2023/12/22 06:16:20;;;;;;;9.68;1.35;;;;;;;;;;4912600;29;20043;-81
2023/12/22 06:18:50;;;;;;;11.35;1.60;;;;;;;;;;4894513;29;20082;-81
2023/12/22 06:21:16;;;;;;;8.02;1.55;;;;;;;;;;4894869;29;20036;-83
2023/12/22 06:23:43;;;;;;;13.32;1.90;;;;;;;;;;4910858;29;20029;-81
2023/12/22 06:26:12;;;;;;;16.70;1.95;;;;;;;;;;4896155;29;20046;-81
2023/12/22 06:28:39;;;;;;;9.35;2.35;;;;;;;;;;4942351;29;20047;-82
2023/12/22 06:31:09;;;;;;;16.83;1.98;;;;;;;;;;4898540;29;20059;-80
2023/12/22 06:33:35;;;;;;;9.80;1.70;;;;;;;;;;4929613;29;20134;-81
2023/12/22 06:36:02;;;;;;;9.90;1.58;;;;;;;;;;4912042;29;20059;-82
2023/12/22 06:38:28;;;;;;;5.45;1.27;;;;;;;;;;4926490;29;20060;-79
2023/12/22 06:40:55;;;;;;;11.40;1.35;;;;;;;;;;4924100;29;20030;-79
2023/12/22 06:43:22;;;;;;;5.97;1.05;;;;;;;;;;4929683;29;20028;-82
2023/12/22 06:45:51;;;;;;;13.48;1.33;;;;;;;;;;4934179;29;20035;-82
2023/12/22 06:48:20;;;;;;;15.43;1.88;;;;;;;;;;4924414;29;20032;-82
2023/12/22 06:50:46;;;;;;;8.45;1.50;;;;;;;;;;4911347;29;20047;-82
2023/12/22 06:53:12;;;;;;;9.88;2.20;;;;;;;;;;4927740;29;20036;-82
2023/12/22 06:55:39;;;;;;;15.13;1.50;;;;;;;;;;4908232;29;20091;-82
2023/12/22 06:58:08;;;;;;;10.32;2.10;;;;;;;;;;4909870;29;20047;-81
2023/12/22 07:00:37;;;;;;;13.88;1.80;;;;;;;;;;4897757;29;20047;-81
2023/12/22 07:03:05;;;;;;;11.35;1.48;;;;;;;;;;4915042;29;20039;-82
2023/12/22 07:05:32;;;;;;;13.15;2.10;;;;;;;;;;4897806;29;20450;-81
2023/12/22 07:07:58;;;;;;;10.90;1.83;;;;;;;;;;4909536;29;20060;-81
2023/12/22 07:10:24;;;;;;;20.63;2.22;;;;;;;;;;4908058;29;20119;-82
2023/12/22 07:12:50;;;;;;;11.57;1.40;;;;;;;;;;4924873;29;20506;-82
2023/12/22 07:15:17;;;;;;;13.27;1.95;;;;;;;;;;4909878;29;20051;-80
2023/12/22 07:17:43;;;;;;;13.93;1.63;;;;;;;;;;4938010;29;20042;-81
2023/12/22 07:20:09;;;;;;;15.43;1.90;;;;;;;;;;4926780;29;20055;-82
2023/12/22 07:22:36;;;;;;;18.70;2.20;;;;;;;;;;4916572;29;20032;-82
2023/12/22 07:25:03;;;;;;;19.02;3.20;;;;;;;;;;4948623;29;20485;-80
2023/12/22 07:27:29;;;;;;;8.43;1.73;;;;;;;;;;4924950;29;20036;-82
2023/12/22 07:29:54;;;;;;;18.02;2.70;;;;;;;;;;4890704;29;20132;-80
2023/12/22 07:32:20;;;;;;;10.18;1.30;;;;;;;;;;4907360;29;20087;-80
2023/12/22 07:34:47;;;;;;;6.53;1.38;;;;;;;;;;4905709;29;20032;-80
2023/12/22 07:37:13;;;;;;;13.82;2.53;;;;;;;;;;4925186;29;20028;-81
2023/12/22 07:39:41;;;;;;;20.50;2.28;;;;;;;;;;4927883;29;20039;-83
2023/12/22 07:42:07;;;;;;;5.60;1.47;;;;;;;;;;4909442;29;20480;-81
2023/12/22 07:44:33;;;;;;;9.07;1.40;;;;;;;;;;4922283;29;20275;-82
2023/12/22 07:46:59;;;;;;;11.02;1.48;;;;;;;;;;4907464;29;20035;-80
2023/12/22 07:49:27;;;;;;;5.32;1.15;;;;;;;;;;4897110;29;20048;-81
2023/12/22 07:51:53;;;;;;;12.32;1.80;;;;;;;;;;4931350;29;20439;-81
2023/12/22 07:54:19;;;;;;;14.57;1.95;;;;;;;;;;4921859;29;20040;-80
2023/12/22 07:56:45;;;;;;;6.82;1.50;;;;;;;;;;4923613;29;20046;-81
2023/12/22 07:59:11;;;;;;;16.05;1.75;;;;;;;;;;4908399;29;20032;-80
2023/12/22 08:01:37;;;;;;;14.05;1.10;;;;;;;;;;4922881;29;20406;-80
2023/12/22 08:04:04;;;;;;;9.70;1.95;;;;;;;;;;4904445;29;20039;-81
2023/12/22 08:06:30;;;;;;;11.20;1.73;;;;;;;;;;4925679;29;20072;-81
2023/12/22 08:08:56;;;;;;;5.05;1.10;;;;;;;;;;4900767;29;20036;-81
2023/12/22 08:11:25;;;;;;;11.98;1.67;;;;;;;;;;4920971;29;20062;-81
2023/12/22 08:13:51;;;;;;;13.07;2.20;;;;;;;;;;4921609;29;20063;-81
2023/12/22 08:16:17;;;;;;;11.68;1.38;;;;;;;;;;4920741;29;20492;-81
2023/12/22 08:18:43;;;;;;;17.73;2.00;;;;;;;;;;4919892;29;20032;-81
2023/12/22 08:21:09;;;;;;;9.73;1.40;;;;;;;;;;4909238;29;20028;-82
2023/12/22 08:23:34;;;;;;;11.13;1.50;;;;;;;;;;4913105;29;20036;-81
2023/12/22 08:26:00;;;;;;;6.57;1.13;;;;;;;;;;4920491;29;20040;-79
2023/12/22 08:28:26;;;;;;;9.38;1.30;;;;;;;;;;4888815;29;20568;-80
2023/12/22 08:30:52;;;;;;;9.65;1.63;;;;;;;;;;4904714;29;20033;-81
2023/12/22 08:33:18;;;;;;;6.45;1.15;;;;;;;;;;4899129;29;20046;-81
2023/12/22 08:35:44;;;;;;;10.25;1.33;;;;;;;;;;4921767;29;20561;-79
2023/12/22 08:38:13;;;;;;;10.38;1.15;;;;;;;;;;4942062;29;20038;-80
2023/12/22 08:40:39;;;;;;;7.22;1.35;;;;;;;;;;4924825;29;20028;-82
2023/12/22 08:43:07;;;;;;;8.65;1.50;;;;;;;;;;4892908;29;20084;-81
2023/12/22 08:45:33;;;;;;;5.10;0.80;;;;;;;;;;4897701;29;20056;-80
2023/12/22 08:47:59;;;;;;;8.15;0.93;;;;;;;;;;4926248;29;20055;-82
2023/12/22 08:50:24;;;;;;;6.82;0.85;;;;;;;;;;4911352;29;20055;-79
2023/12/22 08:52:50;;;;;;;5.68;0.93;;;;;;;;;;4907641;29;20108;-81
2023/12/22 08:55:17;;;;;;;7.30;1.17;;;;;;;;;;4924105;29;20066;-80
2023/12/22 08:57:43;;;;;;;218.57;96.63;;;;;;;;;;4941474;29;20043;-81
2023/12/22 09:00:09;;;;;;;20.73;9.27;;;;;;;;;;4906352;29;20028;-81
2023/12/22 09:02:36;;;;;;;11.23;2.20;;;;;;;;;;4939296;29;20472;-80
2023/12/22 09:05:03;;;;;;;10.38;1.10;;;;;;;;;;4926447;29;20043;-80
2023/12/22 09:07:29;;;;;;;4.40;0.85;;;;;;;;;;4922330;29;20408;-79
2023/12/22 09:09:56;;;;;;;7.35;0.52;;;;;;;;;;4906910;29;20048;-80
2023/12/22 09:12:22;;;;;;;5.35;0.75;;;;;;;;;;4926878;29;20036;-79
2023/12/22 09:14:49;;;;;;;6.03;0.90;;;;;;;;;;4939987;29;20040;-80
2023/12/22 09:17:16;;;;;;;3.17;0.63;;;;;;;;;;4923489;29;20032;-80
2023/12/22 09:19:42;;;;;;;3.67;0.38;;;;;;;;;;4907754;29;20172;-80
2023/12/22 09:22:08;;;;;;;5.25;0.70;;;;;;;;;;4891530;29;20032;-80
2023/12/22 09:24:34;;;;;;;7.18;0.85;;;;;;;;;;4906993;29;20036;-79
2023/12/22 09:27:02;;;;;;;2.63;0.77;;;;;;;;;;4892209;29;20032;-82
2023/12/22 09:29:29;;;;;;;5.85;1.02;;;;;;;;;;4923573;29;20067;-82
2023/12/22 09:31:55;;;;;;;9.50;1.05;;;;;;;;;;4910773;29;20036;-79
2023/12/22 09:34:23;;;;;;;2.95;1.25;;;;;;;;;;4906925;29;20028;-81
2023/12/22 09:36:49;;;;;;;5.88;1.00;;;;;;;;;;4914825;29;20387;-81
2023/12/22 09:39:16;;;;;;;3.95;0.98;;;;;;;;;;4903722;29;20038;-83
2023/12/22 09:41:48;;;;;;;5.90;1.05;;;;;;;;;;4921889;29;20040;-80
2023/12/22 09:44:18;;;;;;;4.22;0.70;;;;;;;;;;4896534;29;20047;-80
2023/12/22 09:46:44;;;;;;;6.25;0.90;;;;;;;;;;4897667;29;20109;-81
2023/12/22 09:49:11;;;;;;;5.35;0.60;;;;;;;;;;4913526;29;20379;-81
2023/12/22 09:52:04;;;;;;;6.18;0.70;;;;;;;;;;4935138;29;20032;-81
2023/12/22 09:54:33;;;;;;;1.30;0.40;;;;;;;;;;4930268;29;20066;-83
2023/12/22 09:57:00;;;;;;;2.45;0.40;;;;;;;;;;4945383;29;20495;-81
2023/12/22 09:59:27;;;;;;;1.05;0.30;;;;;;;;;;4920996;29;20092;-83
2023/12/22 10:01:52;;;;;;;1.40;0.30;;;;;;;;;;4954765;29;20028;-82
2023/12/22 10:04:20;;;;;;;0.77;0.25;;;;;;;;;;4936247;29;20040;-81
2023/12/22 10:06:47;;;;;;;2.75;0.30;;;;;;;;;;4918673;29;20126;-83
2023/12/22 10:09:15;;;;;;;0.68;0.30;;;;;;;;;;4913900;29;20040;-81
2023/12/22 10:11:40;;;;;;;0.73;0.30;;;;;;;;;;4946230;29;20195;-81
2023/12/22 10:14:06;;;;;;;2.05;0.55;;;;;;;;;;4964154;23;20043;-82
2023/12/22 10:16:50;;;;;;;1.55;0.55;;;;;;;;;;4942958;29;20107;-83
2023/12/22 10:20:08;;;;;;;2.72;0.20;;;;;;;;;;4930083;29;20040;-82
2023/12/22 10:27:25;;;;;;;2.65;0.52;;;;;;;;;;4958749;29;20036;-82
2023/12/22 10:30:11;;;;;;;1.83;0.57;;;;;;;;;;4974800;28;20103;-82
2023/12/22 10:33:13;;;;;;;9.65;3.70;;;;;;;;;;4968438;29;20213;-83
2023/12/22 10:35:42;;;;;;;6.65;1.88;;;;;;;;;;4975684;28;20046;-82
2023/12/22 10:38:46;;;;;;;7.13;1.45;;;;;;;;;;4952196;29;20064;-82
2023/12/22 10:46:45;;;;;;;4.18;1.60;;;;;;;;;;4910484;29;20116;-82
2023/12/22 10:49:57;;;;;;;3.97;1.20;;;;;;;;;;4926382;29;20442;-82
2023/12/22 10:56:08;;;;;;;5.43;1.40;;;;;;;;;;5048864;23;20086;-81
2023/12/22 10:59:24;;;;;;;11.10;1.63;;;;;;;;;;4968820;29;20484;-82
2023/12/22 11:02:51;;;;;;;18.10;1.40;;;;;;;;;;4902339;29;20065;-81
2023/12/22 11:05:55;;;;;;;11.45;1.95;;;;;;;;;;4973471;28;20032;-82
2023/12/22 11:09:57;;;;;;;11.52;1.75;;;;;;;;;;4957804;29;20046;-81
2023/12/22 11:24:49;;;;;;;17.67;1.85;;;;;;;;;;5047228;23;20046;-82
2023/12/22 11:27:42;;;;;;;14.82;1.58;;;;;;;;;;4960187;28;20019;-82
2023/12/22 11:30:28;;;;;;;12.43;1.35;;;;;;;;;;4958676;29;20035;-82
2023/12/22 11:36:56;;;;;;;7.20;1.63;;;;;;;;;;4879516;29;20053;-82
2023/12/22 11:39:46;;;;;;;10.50;1.27;;;;;;;;;;4870728;29;20463;-82
2023/12/22 11:42:42;;;;;;;11.50;2.03;;;;;;;;;;4846720;29;20045;-81
2023/12/22 11:45:22;;;;;;;13.98;2.20;;;;;;;;;;4985024;23;20055;-82
2023/12/22 11:48:40;;;;;;;;;;;;;;;;;;;;;
2023/12/22 11:51:26;;;;;;;14.20;1.55;;;;;;;;;;4933125;29;20048;-81
2023/12/22 11:54:43;;;;;;;20.38;1.83;;;;;;;;;;4933852;29;20075;-81
2023/12/22 11:57:47;;;;;;;10.80;1.98;;;;;;;;;;4933469;29;20063;-81
2023/12/22 12:00:45;;;;;;;8.48;1.38;;;;;;;;;;4903589;29;20466;-81
2023/12/22 12:04:10;;;;;;;14.48;2.15;;;;;;;;;;4934006;29;20088;-81
2023/12/22 12:06:55;;;;;;;14.18;1.60;;;;;;;;;;4910014;29;20107;-81
2023/12/22 12:10:26;;;;;;;;;;;;;;;;;;;;;
2023/12/22 12:16:06;;;;;;;;;;;;;;;;;;5280320;23;20059;-81
2023/12/22 12:19:15;;;;;;;13.18;1.70;;;;;;;;;;4956089;28;19934;-81
2023/12/22 12:22:24;;;;;;;14.93;1.92;;;;;;;;;;4964122;28;20046;-81
2023/12/22 12:25:20;;;;;;;13.35;1.48;;;;;;;;;;4963719;28;20122;-79
2023/12/22 12:28:09;;;;;;;13.65;2.42;;;;;;;;;;4964698;29;20052;-81
2023/12/22 12:31:37;;;;;;;;;;;;;;;;;;;;;
2023/12/22 12:38:09;;;;;;;8.27;1.63;;;;;;;;;;4964209;28;20047;-81
2023/12/22 12:41:11;;;;;;;6.10;1.33;;;;;;;;;;4953928;29;20448;-80
2023/12/22 12:44:10;;;;;;;3.72;1.10;;;;;;;;;;4960379;28;20032;-81
2023/12/22 12:46:46;;;;;;;2.30;1.00;;;;;;;;;;4933514;29;20044;-81
2023/12/22 12:49:31;;;;;;;5.00;1.05;;;;;;;;;;4932701;29;20035;-81
2023/12/22 12:55:58;;;;;;;9.90;3.33;;;;;;;;;;4922956;29;20032;-80
2023/12/22 12:59:00;;;;;;;5.85;1.30;;;;;;;;;;4919595;29;20032;-79
2023/12/22 13:01:48;;;;;;;;;;;;;;;;;;;;;
2023/12/22 13:04:22;;;;;;;6.13;0.93;;;;;;;;;;4911587;29;20040;-81
2023/12/22 13:07:03;;;;;;;8.55;3.40;;;;;;;;;;4927966;29;20071;-80
2023/12/22 13:09:51;;;;;;;13.15;3.58;;;;;;;;;;4913346;29;20465;-80
2023/12/22 13:12:34;;;;;;;13.38;5.28;;;;;;;;;;4927276;29;20040;-80
2023/12/22 13:15:19;;;;;;;;;;;;;;;;;;4912676;29;20040;-80
2023/12/22 13:18:05;;;;;;;4.15;1.23;;;;;;;;;;4913837;29;19922;-79
2023/12/22 13:20:55;;;;;;;3.45;0.90;;;;;;;;;;4930349;29;20457;-80
2023/12/22 13:24:25;;;;;;;5.15;1.20;;;;;;;;;;4900783;29;20028;-80
2023/12/22 13:27:36;;;;;;;8.80;1.40;;;;;;;;;;4924703;29;20043;-80
2023/12/22 13:30:44;;;;;;;4.55;0.90;;;;;;;;;;4934741;29;20520;-80
2023/12/22 13:33:43;;;;;;;4.18;1.17;;;;;;;;;;4930601;29;20100;-80
2023/12/22 13:36:44;;;;;;;5.72;1.58;;;;;;;;;;4932115;29;20040;-80
2023/12/22 13:39:47;;;;;;;3.53;1.00;;;;;;;;;;4916969;29;20055;-80
2023/12/22 13:42:38;;;;;;;8.05;1.27;;;;;;;;;;4932818;29;20065;-80
2023/12/22 13:45:42;;;;;;;5.50;1.27;;;;;;;;;;4855323;29;20096;-80
2023/12/22 13:48:35;;;;;;;6.75;1.05;;;;;;;;;;4840805;29;20046;-80
2023/12/22 13:51:38;;;;;;;6.22;1.23;;;;;;;;;;4847122;29;20057;-80
2023/12/22 13:54:38;;;;;;;8.10;2.03;;;;;;;;;;4848598;29;20033;-80
2023/12/22 14:00:54;;;;;;;;;;;;;;;;;;;;;
2023/12/22 14:03:52;;;;;;;5.18;1.45;;;;;;;;;;4865942;29;20140;-80
2023/12/22 14:10:50;;;;;;;9.95;1.45;;;;;;;;;;4842348;29;20066;-81
2023/12/22 14:14:19;;;;;;;;;;;;;;;;;;;;;
2023/12/22 14:17:33;;;;;;;7.40;1.30;;;;;;;;;;4871810;29;20045;-80
2023/12/22 14:20:19;;;;;;;10.35;1.83;;;;;;;;;;4888001;29;20041;-81
2023/12/22 14:23:41;;;;;;;12.93;1.67;;;;;;;;;;4862712;29;20045;-80
2023/12/22 14:27:10;;;;;;;10.33;1.63;;;;;;;;;;4876456;29;20061;-81
2023/12/22 14:30:56;;;;;;;14.88;1.80;;;;;;;;;;4879232;29;20276;-80
2023/12/22 14:33:58;;;;;;;14.88;3.13;;;;;;;;;;4878726;29;20036;-81
2023/12/22 14:36:39;;;;;;;7.30;1.83;;;;;;;;;;4875559;29;20097;-81
2023/12/22 14:40:21;;;;;;;10.75;2.70;;;;;;;;;;4853157;29;20050;-81
2023/12/22 14:43:20;;;;;;;10.75;1.85;;;;;;;;;;4838272;29;20042;-80
2023/12/22 14:46:03;;;;;;;16.85;2.30;;;;;;;;;;4852657;29;20392;-80
2023/12/22 14:48:52;;;;;;;8.68;2.20;;;;;;;;;;4834077;29;20034;-80
2023/12/22 14:52:08;;;;;;;13.00;1.60;;;;;;;;;;4823317;29;20046;-81
2023/12/22 14:54:47;;;;;;;9.02;1.35;;;;;;;;;;4831851;29;20037;-80
2023/12/22 14:58:13;;;;;;;10.43;1.77;;;;;;;;;;4835542;29;20046;-81
2023/12/22 15:00:56;;;;;;;12.15;1.75;;;;;;;;;;4853418;29;20105;-81
2023/12/22 15:03:46;;;;;;;13.05;1.95;;;;;;;;;;4856342;29;20040;-81
2023/12/22 15:06:57;;;;;;;10.27;1.63;;;;;;;;;;4856715;29;20040;-81
2023/12/22 15:09:59;;;;;;;13.70;1.90;;;;;;;;;;4871249;29;20044;-81
2023/12/22 15:12:47;;;;;;;9.52;1.77;;;;;;;;;;4929628;29;20039;-80
2023/12/22 15:16:14;;;;;;;13.25;2.03;;;;;;;;;;4941184;29;20043;-81
2023/12/22 15:19:49;;;;;;;13.10;2.00;;;;;;;;;;4963887;28;20054;-81
2023/12/22 15:29:18;;;;;;;7.82;2.33;;;;;;;;;;4883982;29;20090;-80
2023/12/22 15:32:22;;;;;;;9.18;1.65;;;;;;;;;;4880488;29;20041;-81
2023/12/22 15:35:47;;;;;;;6.20;1.52;;;;;;;;;;4891676;29;20144;-81
2023/12/22 15:38:41;;;;;;;7.47;1.50;;;;;;;;;;4867997;29;20073;-81
2023/12/22 15:42:06;;;;;;;7.57;1.20;;;;;;;;;;4909103;29;20048;-81
2023/12/22 15:45:07;;;;;;;9.68;1.80;;;;;;;;;;4912212;29;20069;-81
2023/12/22 15:47:52;;;;;;;6.68;1.20;;;;;;;;;;4894634;29;20036;-81
2023/12/22 15:50:46;;;;;;;7.22;0.98;;;;;;;;;;4857682;29;20037;-81
2023/12/22 15:54:05;;;;;;;6.68;1.38;;;;;;;;;;4858653;29;20037;-81
2023/12/22 16:01:11;;;;;;;4.07;1.20;;;;;;;;;;4953389;28;20103;-81
2023/12/22 16:04:36;;;;;;;3.63;0.85;;;;;;;;;;4913216;29;20096;-81
2023/12/22 16:08:02;;;;;;;5.45;0.95;;;;;;;;;;4870784;29;20136;-81
2023/12/22 16:11:22;;;;;;;;;;;;;;;;;;;;;
2023/12/22 16:14:28;;;;;;;4.25;1.15;;;;;;;;;;4853366;29;20037;-80
2023/12/22 16:17:29;;;;;;;5.85;1.35;;;;;;;;;;4869222;29;20101;-79
2023/12/22 16:20:14;;;;;;;4.22;1.20;;;;;;;;;;4844493;29;20109;-80
2023/12/22 16:23:25;;;;;;;;;;;;;;;;;;;;;
2023/12/22 16:26:12;;;;;;;4.80;1.10;;;;;;;;;;4845482;29;20053;-80
2023/12/22 16:29:17;;;;;;;4.95;1.10;;;;;;;;;;4866010;29;20027;-81
2023/12/22 16:32:26;;;;;;;;;;;;;;;;;;;;;
2023/12/22 16:35:25;;;;;;;8.45;2.13;;;;;;;;;;4882063;29;20062;-81
2023/12/22 16:42:48;;;;;;;9.10;1.20;;;;;;;;;;4898534;29;20036;-81
2023/12/22 16:46:09;;;;;;;5.60;1.10;;;;;;;;;;4889858;29;20025;-81
2023/12/22 16:49:37;;;;;;;5.97;1.10;;;;;;;;;;4857573;29;20066;-82